PWSweather.com
Personal Weather Stations
Station Observations
SEAWX98122
Squire Park, Seattle, WA 98122

Squire ParkSeattle, WA 98122

Lat: 47.61174774, Lon: -122.31365204

Elevation: 324

Station Type: Davis Vantage Pro 2

https://www.seattleweather.org

Latest ConditionsUpdated 8:40:01 AM PST Sunday, Jan 21, 2018
Currently Today's Max Today's Min Today's Average
Temperature 48.8°F9.3°C 50.3°F10.2°C 47.5°F8.6°C 48.8°F9.3°C
Dew Point 40.2°F4.6°C 40.4°F4.7°C 35.3°F1.8°C 37.4°F3.0°C
Winds 4.6 mph SE7.4 kmh SE 33.4 mph E53.8 kmh E - 20.5 mph 33.0 kmh
Wind Gusts 8.1 mph13.0 kmh 41.4 mph66.6 kmh - -
Humidity 72% 76% 57% 65%
Pressure 29.76 in1007.8 mb 29.94 in1013.9 mb 29.75 in1007.5 mb -
Precipitation - 0.07 in1.8 mm - -
Hour Temp Dew Point Humidity Winds Wind Gusts Pressure Precip Precip Rate Daily Precip Total
08:40 AM 48.8°F9.3°C 40.2°F4.6°C 72% 4.6 mph SE7.4 kmh SE 8.1 mph13.0 kmh 29.76 in1007.8 mb - 0.00 in0.0 mm 0.07 in1.8 mm
08:35 AM 48.7°F9.3°C 40.1°F4.5°C 72% 8.1 mph SE13.0 kmh SE 15.0 mph24.1 kmh 29.76 in1007.8 mb - 0.00 in0.0 mm 0.07 in1.8 mm
08:30 AM 48.6°F9.2°C 40.0°F4.4°C 72% 4.6 mph S7.4 kmh S 10.4 mph16.7 kmh 29.76 in1007.8 mb - 0.00 in0.0 mm 0.07 in1.8 mm
08:25 AM 48.5°F9.2°C 39.9°F4.4°C 72% 5.8 mph SSE9.3 kmh SSE 11.5 mph18.5 kmh 29.76 in1007.8 mb - 0.00 in0.0 mm 0.07 in1.8 mm
08:20 AM 48.5°F9.2°C 40.3°F4.6°C 73% 8.1 mph S13.0 kmh S 11.5 mph18.5 kmh 29.76 in1007.8 mb - 0.00 in0.0 mm 0.07 in1.8 mm
08:15 AM 48.3°F9.1°C 39.7°F4.3°C 72% 6.9 mph SSE11.1 kmh SSE 10.4 mph16.7 kmh 29.75 in1007.5 mb - 0.00 in0.0 mm 0.07 in1.8 mm
08:10 AM 48.1°F8.9°C 39.8°F4.3°C 73% 9.2 mph S14.8 kmh S 15.0 mph24.1 kmh 29.75 in1007.5 mb - 0.00 in0.0 mm 0.07 in1.8 mm
08:00 AM 47.8°F8.8°C 40.3°F4.6°C 75% 6.9 mph S11.1 kmh S 11.5 mph18.5 kmh 29.76 in1007.8 mb - 0.00 in0.0 mm 0.07 in1.8 mm
07:55 AM 47.9°F8.8°C 40.3°F4.6°C 75% 8.1 mph SE13.0 kmh SE 13.8 mph22.2 kmh 29.75 in1007.5 mb - 0.00 in0.0 mm 0.07 in1.8 mm
07:50 AM 47.6°F8.7°C 40.1°F4.5°C 75% 10.4 mph SE16.7 kmh SE 11.5 mph18.5 kmh 29.75 in1007.5 mb - 0.00 in0.0 mm 0.07 in1.8 mm
07:45 AM 47.5°F8.6°C 40.0°F4.4°C 75% 9.2 mph S14.8 kmh S 12.7 mph20.4 kmh 29.76 in1007.8 mb - 0.01 in0.3 mm 0.07 in1.8 mm
07:40 AM 47.6°F8.7°C 40.4°F4.7°C 76% 11.5 mph SE18.5 kmh SE 19.6 mph31.5 kmh 29.76 in1007.8 mb - 0.02 in0.5 mm 0.06 in1.5 mm
07:35 AM 47.7°F8.7°C 40.2°F4.6°C 75% 8.1 mph S13.0 kmh S 15.0 mph24.1 kmh 29.77 in1008.1 mb - 0.02 in0.5 mm 0.05 in1.3 mm
07:30 AM 48.1°F8.9°C 40.2°F4.6°C 74% 6.9 mph SE11.1 kmh SE 15.0 mph24.1 kmh 29.78 in1008.5 mb - 0.01 in0.3 mm 0.04 in1.0 mm
07:25 AM 48.3°F9.1°C 39.7°F4.3°C 72% 10.4 mph S16.7 kmh S 13.8 mph22.2 kmh 29.78 in1008.5 mb - 0.01 in0.3 mm 0.03 in0.8 mm
07:20 AM 48.4°F9.1°C 39.8°F4.3°C 72% 6.9 mph SE11.1 kmh SE 11.5 mph18.5 kmh 29.78 in1008.5 mb - 0.01 in0.3 mm 0.02 in0.5 mm
07:15 AM 48.5°F9.2°C 39.9°F4.4°C 72% 8.1 mph SE13.0 kmh SE 18.4 mph29.6 kmh 29.78 in1008.5 mb - 0.01 in0.3 mm 0.02 in0.5 mm
07:10 AM 49.1°F9.5°C 39.7°F4.3°C 70% 6.9 mph SSE11.1 kmh SSE 19.6 mph31.5 kmh 29.78 in1008.5 mb - 0.01 in0.3 mm 0.01 in0.3 mm
07:00 AM 49.9°F9.9°C 38.6°F3.7°C 65% 10.4 mph SSW16.7 kmh SSW 19.6 mph31.5 kmh 29.79 in1008.8 mb - 0.00 in0.0 mm 0.00 in0.0 mm
06:55 AM 50.0°F10.0°C 38.3°F3.5°C 64% 8.1 mph SE13.0 kmh SE 12.7 mph20.4 kmh 29.79 in1008.8 mb - 0.00 in0.0 mm 0.00 in0.0 mm
06:50 AM 50.2°F10.1°C 38.1°F3.4°C 63% 10.4 mph SSE16.7 kmh SSE 20.7 mph33.3 kmh 29.80 in1009.1 mb - 0.00 in0.0 mm 0.00 in0.0 mm
06:45 AM 50.2°F10.1°C 38.0°F3.3°C 63% 9.2 mph SSE14.8 kmh SSE 21.9 mph35.2 kmh 29.80 in1009.1 mb - 0.00 in0.0 mm 0.00 in0.0 mm
06:40 AM 50.1°F10.1°C 38.0°F3.3°C 63% 8.1 mph SSW13.0 kmh SSW 18.4 mph29.6 kmh 29.80 in1009.1 mb - 0.00 in0.0 mm 0.00 in0.0 mm
06:35 AM 50.2°F10.1°C 38.1°F3.4°C 63% 9.2 mph S14.8 kmh S 16.1 mph25.9 kmh 29.80 in1009.1 mb - 0.00 in0.0 mm 0.00 in0.0 mm
06:30 AM 50.2°F10.1°C 37.7°F3.2°C 62% 9.2 mph SSE14.8 kmh SSE 19.6 mph31.5 kmh 29.80 in1009.1 mb - 0.00 in0.0 mm 0.00 in0.0 mm
06:25 AM 50.3°F10.2°C 37.8°F3.2°C 62% 9.2 mph SSE14.8 kmh SSE 17.3 mph27.8 kmh 29.81 in1009.5 mb - 0.00 in0.0 mm 0.00 in0.0 mm
06:20 AM 50.1°F10.1°C 37.2°F2.9°C 61% 15.0 mph S24.1 kmh S 20.7 mph33.3 kmh 29.81 in1009.5 mb - 0.00 in0.0 mm 0.00 in0.0 mm
06:15 AM 50.0°F10.0°C 37.5°F3.1°C 62% 9.2 mph S14.8 kmh S 13.8 mph22.2 kmh 29.81 in1009.5 mb - 0.00 in0.0 mm 0.00 in0.0 mm
06:10 AM 50.1°F10.1°C 37.6°F3.1°C 62% 8.1 mph S13.0 kmh S 19.6 mph31.5 kmh 29.81 in1009.5 mb - 0.00 in0.0 mm 0.00 in0.0 mm
06:00 AM 50.2°F10.1°C 35.5°F1.9°C 57% 25.3 mph E40.7 kmh E 31.1 mph50.1 kmh 29.82 in1009.8 mb - 0.00 in0.0 mm 0.00 in0.0 mm
05:55 AM 50.1°F10.1°C 35.4°F1.9°C 57% 28.8 mph E46.3 kmh E 36.8 mph59.2 kmh 29.82 in1009.8 mb - 0.00 in0.0 mm 0.00 in0.0 mm
05:50 AM 49.9°F9.9°C 35.3°F1.8°C 57% 29.9 mph E48.1 kmh E 38.0 mph61.2 kmh 29.82 in1009.8 mb - 0.00 in0.0 mm 0.00 in0.0 mm
05:45 AM 49.7°F9.8°C 35.5°F1.9°C 58% 25.3 mph E40.7 kmh E 28.8 mph46.3 kmh 29.82 in1009.8 mb - 0.00 in0.0 mm 0.00 in0.0 mm
05:40 AM 49.6°F9.8°C 35.8°F2.1°C 59% 19.6 mph E31.5 kmh E 28.8 mph46.3 kmh 29.82 in1009.8 mb - 0.00 in0.0 mm 0.00 in0.0 mm
05:35 AM 49.6°F9.8°C 35.8°F2.1°C 59% 26.5 mph E42.6 kmh E 31.1 mph50.1 kmh 29.82 in1009.8 mb - 0.00 in0.0 mm 0.00 in0.0 mm
05:30 AM 49.5°F9.7°C 35.8°F2.1°C 59% 25.3 mph E40.7 kmh E 36.8 mph59.2 kmh 29.82 in1009.8 mb - 0.00 in0.0 mm 0.00 in0.0 mm
05:25 AM 49.5°F9.7°C 36.2°F2.3°C 60% 26.5 mph E42.6 kmh E 36.8 mph59.2 kmh 29.83 in1010.2 mb - 0.00 in0.0 mm 0.00 in0.0 mm
05:20 AM 49.4°F9.7°C 36.1°F2.3°C 60% 29.9 mph E48.1 kmh E 33.4 mph53.8 kmh 29.83 in1010.2 mb - 0.00 in0.0 mm 0.00 in0.0 mm
05:15 AM 49.3°F9.6°C 36.0°F2.2°C 60% 25.3 mph E40.7 kmh E 29.9 mph48.1 kmh 29.83 in1010.2 mb - 0.00 in0.0 mm 0.00 in0.0 mm
05:10 AM 49.2°F9.6°C 36.3°F2.4°C 61% 20.7 mph E33.3 kmh E 31.1 mph50.1 kmh 29.83 in1010.2 mb - 0.00 in0.0 mm 0.00 in0.0 mm
05:00 AM 49.1°F9.5°C 36.6°F2.6°C 62% 29.9 mph E48.1 kmh E 41.4 mph66.6 kmh 29.84 in1010.5 mb - 0.00 in0.0 mm 0.00 in0.0 mm
04:55 AM 49.0°F9.4°C 36.5°F2.5°C 62% 29.9 mph E48.1 kmh E 38.0 mph61.2 kmh 29.84 in1010.5 mb - 0.00 in0.0 mm 0.00 in0.0 mm
04:50 AM 48.9°F9.4°C 36.9°F2.7°C 63% 21.9 mph E35.2 kmh E 31.1 mph50.1 kmh 29.84 in1010.5 mb - 0.00 in0.0 mm 0.00 in0.0 mm
04:45 AM 49.0°F9.4°C 36.5°F2.5°C 62% 25.3 mph E40.7 kmh E 28.8 mph46.3 kmh 29.85 in1010.8 mb - 0.00 in0.0 mm 0.00 in0.0 mm
04:40 AM 49.1°F9.5°C 36.6°F2.6°C 62% 31.1 mph E50.1 kmh E 38.0 mph61.2 kmh 29.85 in1010.8 mb - 0.00 in0.0 mm 0.00 in0.0 mm
04:35 AM 49.0°F9.4°C 36.9°F2.7°C 63% 25.3 mph E40.7 kmh E 34.5 mph55.5 kmh 29.86 in1011.2 mb - 0.00 in0.0 mm 0.00 in0.0 mm
04:30 AM 48.9°F9.4°C 36.9°F2.7°C 63% 27.6 mph E44.4 kmh E 34.5 mph55.5 kmh 29.86 in1011.2 mb - 0.00 in0.0 mm 0.00 in0.0 mm
04:25 AM 48.9°F9.4°C 36.8°F2.7°C 63% 24.2 mph E38.9 kmh E 31.1 mph50.1 kmh 29.86 in1011.2 mb - 0.00 in0.0 mm 0.00 in0.0 mm
04:20 AM 48.9°F9.4°C 36.9°F2.7°C 63% 20.7 mph E33.3 kmh E 26.5 mph42.6 kmh 29.86 in1011.2 mb - 0.00 in0.0 mm 0.00 in0.0 mm
04:15 AM 48.8°F9.3°C 36.8°F2.7°C 63% 24.2 mph E38.9 kmh E 38.0 mph61.2 kmh 29.87 in1011.5 mb - 0.00 in0.0 mm 0.00 in0.0 mm
04:10 AM 48.7°F9.3°C 37.1°F2.8°C 64% 27.6 mph E44.4 kmh E 39.1 mph62.9 kmh 29.87 in1011.5 mb - 0.00 in0.0 mm 0.00 in0.0 mm
04:00 AM 48.3°F9.1°C 37.1°F2.8°C 65% 17.3 mph E27.8 kmh E 25.3 mph40.7 kmh 29.88 in1011.9 mb - 0.00 in0.0 mm 0.00 in0.0 mm
03:55 AM 48.3°F9.1°C 37.5°F3.1°C 66% 17.3 mph E27.8 kmh E 21.9 mph35.2 kmh 29.88 in1011.9 mb - 0.00 in0.0 mm 0.00 in0.0 mm
03:50 AM 48.4°F9.1°C 37.2°F2.9°C 65% 19.6 mph E31.5 kmh E 23.0 mph37.0 kmh 29.88 in1011.9 mb - 0.00 in0.0 mm 0.00 in0.0 mm
03:45 AM 48.4°F9.1°C 37.2°F2.9°C 65% 24.2 mph E38.9 kmh E 29.9 mph48.1 kmh 29.89 in1012.2 mb - 0.00 in0.0 mm 0.00 in0.0 mm
03:40 AM 48.6°F9.2°C 37.0°F2.8°C 64% 23.0 mph E37.0 kmh E 29.9 mph48.1 kmh 29.89 in1012.2 mb - 0.00 in0.0 mm 0.00 in0.0 mm
03:35 AM 48.7°F9.3°C 37.1°F2.8°C 64% 26.5 mph E42.6 kmh E 34.5 mph55.5 kmh 29.89 in1012.2 mb - 0.00 in0.0 mm 0.00 in0.0 mm
03:30 AM 48.9°F9.4°C 36.9°F2.7°C 63% 29.9 mph E48.1 kmh E 35.7 mph57.5 kmh 29.89 in1012.2 mb - 0.00 in0.0 mm 0.00 in0.0 mm
03:25 AM 48.9°F9.4°C 36.9°F2.7°C 63% 27.6 mph E44.4 kmh E 26.5 mph42.6 kmh 29.89 in1012.2 mb - 0.00 in0.0 mm 0.00 in0.0 mm
03:20 AM 48.9°F9.4°C 36.9°F2.7°C 63% 23.0 mph E37.0 kmh E 34.5 mph55.5 kmh 29.89 in1012.2 mb - 0.00 in0.0 mm 0.00 in0.0 mm
03:15 AM 48.9°F9.4°C 36.9°F2.7°C 63% 26.5 mph E42.6 kmh E 32.2 mph51.8 kmh 29.90 in1012.5 mb - 0.00 in0.0 mm 0.00 in0.0 mm
03:10 AM 48.9°F9.4°C 36.9°F2.7°C 63% 24.2 mph E38.9 kmh E 35.7 mph57.5 kmh 29.90 in1012.5 mb - 0.00 in0.0 mm 0.00 in0.0 mm
03:00 AM 48.7°F9.3°C 36.7°F2.6°C 63% 23.0 mph E37.0 kmh E 34.5 mph55.5 kmh 29.91 in1012.9 mb - 0.00 in0.0 mm 0.00 in0.0 mm
02:55 AM 48.7°F9.3°C 36.7°F2.6°C 63% 26.5 mph E42.6 kmh E 35.7 mph57.5 kmh 29.91 in1012.9 mb - 0.00 in0.0 mm 0.00 in0.0 mm
02:50 AM 48.7°F9.3°C 37.1°F2.8°C 64% 20.7 mph E33.3 kmh E 34.5 mph55.5 kmh 29.91 in1012.9 mb - 0.00 in0.0 mm 0.00 in0.0 mm
02:45 AM 48.7°F9.3°C 36.7°F2.6°C 63% 24.2 mph E38.9 kmh E 34.5 mph55.5 kmh 29.91 in1012.9 mb - 0.00 in0.0 mm 0.00 in0.0 mm
02:40 AM 48.8°F9.3°C 36.7°F2.6°C 63% 28.8 mph E46.3 kmh E 31.1 mph50.1 kmh 29.91 in1012.9 mb - 0.00 in0.0 mm 0.00 in0.0 mm
02:35 AM 48.8°F9.3°C 36.8°F2.7°C 63% 24.2 mph E38.9 kmh E 29.9 mph48.1 kmh 29.91 in1012.9 mb - 0.00 in0.0 mm 0.00 in0.0 mm
02:30 AM 48.7°F9.3°C 36.6°F2.6°C 63% 33.4 mph E53.8 kmh E 39.1 mph62.9 kmh 29.91 in1012.9 mb - 0.00 in0.0 mm 0.00 in0.0 mm
02:25 AM 48.6°F9.2°C 37.0°F2.8°C 64% 23.0 mph E37.0 kmh E 26.5 mph42.6 kmh 29.92 in1013.2 mb - 0.00 in0.0 mm 0.00 in0.0 mm
02:20 AM 48.5°F9.2°C 37.3°F2.9°C 65% 25.3 mph E40.7 kmh E 33.4 mph53.8 kmh 29.92 in1013.2 mb - 0.00 in0.0 mm 0.00 in0.0 mm
02:15 AM 48.3°F9.1°C 37.1°F2.8°C 65% 26.5 mph E42.6 kmh E 31.1 mph50.1 kmh 29.92 in1013.2 mb - 0.00 in0.0 mm 0.00 in0.0 mm
02:10 AM 48.1°F8.9°C 37.3°F2.9°C 66% 23.0 mph E37.0 kmh E 32.2 mph51.8 kmh 29.92 in1013.2 mb - 0.00 in0.0 mm 0.00 in0.0 mm
02:00 AM 48.1°F8.9°C 37.3°F2.9°C 66% 21.9 mph E35.2 kmh E 24.2 mph38.9 kmh 29.92 in1013.2 mb - 0.00 in0.0 mm 0.00 in0.0 mm
01:55 AM 48.2°F9.0°C 37.4°F3.0°C 66% 15.0 mph E24.1 kmh E 27.6 mph44.4 kmh 29.92 in1013.2 mb - 0.00 in0.0 mm 0.00 in0.0 mm
01:50 AM 48.2°F9.0°C 37.0°F2.8°C 65% 28.8 mph E46.3 kmh E 34.5 mph55.5 kmh 29.92 in1013.2 mb - 0.00 in0.0 mm 0.00 in0.0 mm
01:45 AM 48.2°F9.0°C 37.0°F2.8°C 65% 28.8 mph E46.3 kmh E 35.7 mph57.5 kmh 29.92 in1013.2 mb - 0.00 in0.0 mm 0.00 in0.0 mm
01:40 AM 48.5°F9.2°C 36.9°F2.7°C 64% 27.6 mph E44.4 kmh E 34.5 mph55.5 kmh 29.92 in1013.2 mb - 0.00 in0.0 mm 0.00 in0.0 mm
01:35 AM 48.3°F9.1°C 36.7°F2.6°C 64% 26.5 mph E42.6 kmh E 29.9 mph48.1 kmh 29.92 in1013.2 mb - 0.00 in0.0 mm 0.00 in0.0 mm
01:30 AM 48.5°F9.2°C 36.9°F2.7°C 64% 27.6 mph E44.4 kmh E 36.8 mph59.2 kmh 29.92 in1013.2 mb - 0.00 in0.0 mm 0.00 in0.0 mm
01:25 AM 48.4°F9.1°C 36.8°F2.7°C 64% 27.6 mph E44.4 kmh E 34.5 mph55.5 kmh 29.93 in1013.5 mb - 0.00 in0.0 mm 0.00 in0.0 mm
01:20 AM 48.5°F9.2°C 36.5°F2.5°C 63% 20.7 mph E33.3 kmh E 20.7 mph33.3 kmh 29.93 in1013.5 mb - 0.00 in0.0 mm 0.00 in0.0 mm
01:15 AM 48.3°F9.1°C 36.7°F2.6°C 64% 26.5 mph E42.6 kmh E 35.7 mph57.5 kmh 29.93 in1013.5 mb - 0.00 in0.0 mm 0.00 in0.0 mm
01:10 AM 48.1°F8.9°C 36.9°F2.7°C 65% 21.9 mph E35.2 kmh E 31.1 mph50.1 kmh 29.93 in1013.5 mb - 0.00 in0.0 mm 0.00 in0.0 mm
01:00 AM 48.1°F8.9°C 36.9°F2.7°C 65% 26.5 mph E42.6 kmh E 31.1 mph50.1 kmh 29.93 in1013.5 mb - 0.00 in0.0 mm 0.00 in0.0 mm
12:55 AM 48.2°F9.0°C 36.6°F2.6°C 64% 28.8 mph E46.3 kmh E 33.4 mph53.8 kmh 29.93 in1013.5 mb - 0.00 in0.0 mm 0.00 in0.0 mm
12:50 AM 48.2°F9.0°C 36.6°F2.6°C 64% 23.0 mph E37.0 kmh E 23.0 mph37.0 kmh 29.93 in1013.5 mb - 0.00 in0.0 mm 0.00 in0.0 mm
12:45 AM 48.1°F8.9°C 36.5°F2.5°C 64% 33.4 mph E53.8 kmh E 36.8 mph59.2 kmh 29.93 in1013.5 mb - 0.00 in0.0 mm 0.00 in0.0 mm
12:40 AM 48.1°F8.9°C 36.9°F2.7°C 65% 27.6 mph E44.4 kmh E 33.4 mph53.8 kmh 29.94 in1013.9 mb - 0.00 in0.0 mm 0.00 in0.0 mm
12:35 AM 48.2°F9.0°C 36.6°F2.6°C 64% 28.8 mph E46.3 kmh E 29.9 mph48.1 kmh 29.94 in1013.9 mb - 0.00 in0.0 mm 0.00 in0.0 mm
12:30 AM 48.2°F9.0°C 36.6°F2.6°C 64% 25.3 mph E40.7 kmh E 35.7 mph57.5 kmh 29.94 in1013.9 mb - 0.00 in0.0 mm 0.00 in0.0 mm
12:25 AM 48.2°F9.0°C 36.6°F2.6°C 64% 25.3 mph E40.7 kmh E 29.9 mph48.1 kmh 29.94 in1013.9 mb - 0.00 in0.0 mm 0.00 in0.0 mm
12:20 AM 48.3°F9.1°C 36.7°F2.6°C 64% 28.8 mph E46.3 kmh E 31.1 mph50.1 kmh 29.94 in1013.9 mb - 0.00 in0.0 mm 0.00 in0.0 mm
12:15 AM 48.2°F9.0°C 36.6°F2.6°C 64% 27.6 mph E44.4 kmh E 34.5 mph55.5 kmh 29.94 in1013.9 mb - 0.00 in0.0 mm 0.00 in0.0 mm
12:10 AM 48.3°F9.1°C 36.3°F2.4°C 63% 33.4 mph E53.8 kmh E 39.1 mph62.9 kmh 29.94 in1013.9 mb - 0.00 in0.0 mm 0.00 in0.0 mm
12:00 AM 48.2°F9.0°C 36.2°F2.3°C 63% 29.9 mph E48.1 kmh E 35.7 mph57.5 kmh 29.94 in1013.9 mb - 0.00 in0.0 mm 0.00 in0.0 mm